Time;durP1;ratioP1;P1;durP2;ratioP2;P2;SDS_P1;SDS_P2;PMS_P1;PMS_P2;Temp;Humidity;BMP_temperature;BMP_pressure;BME280_temperature;BME280_humidity;BME280_pressure;Samples;Min_cycle;Max_cycle;Signal;HPM_P1;HPM_P2
2022/03/26 00:00:14;;;;;;;20.30;16.97;;;;;;;9.83;45.75;97367.06;5054537;28;20705;-51
2022/03/26 00:02:40;;;;;;;20.77;17.77;;;;;;;9.73;46.11;97359.03;5058439;28;20221;-52
2022/03/26 00:05:07;;;;;;;22.43;16.33;;;;;;;9.71;47.07;97366.22;5058295;28;20239;-52
2022/03/26 00:07:34;;;;;;;25.10;17.60;;;;;;;9.66;47.06;97360.47;5058432;28;20290;-51
2022/03/26 00:10:00;;;;;;;20.83;17.17;;;;;;;9.57;47.26;97361.16;5061281;28;20232;-52
2022/03/26 00:12:26;;;;;;;22.03;17.43;;;;;;;9.52;47.49;97357.22;5050223;28;20211;-51
2022/03/26 00:14:53;;;;;;;22.43;17.10;;;;;;;9.52;46.66;97359.84;5059999;28;20207;-52
2022/03/26 00:17:21;;;;;;;21.53;18.47;;;;;;;9.44;46.82;97361.28;5063158;28;20227;-51
2022/03/26 00:19:47;;;;;;;21.60;17.80;;;;;;;9.39;47.09;97359.94;5057754;28;20272;-53
2022/03/26 00:22:14;;;;;;;21.87;18.63;;;;;;;9.35;47.54;97358.53;5057612;28;20207;-52
2022/03/26 00:24:40;;;;;;;25.43;18.83;;;;;;;9.32;47.00;97358.72;5057587;28;20246;-53
2022/03/26 00:27:07;;;;;;;21.23;17.13;;;;;;;9.33;47.13;97363.91;5057803;28;20217;-50
2022/03/26 00:29:33;;;;;;;22.77;17.87;;;;;;;9.29;48.03;97361.63;5058382;28;20205;-51
2022/03/26 00:32:00;;;;;;;21.60;18.30;;;;;;;9.19;47.31;97363.28;5057571;28;20218;-51
2022/03/26 00:34:27;;;;;;;22.67;17.50;;;;;;;9.17;47.51;97370.47;5044425;28;20216;-51
2022/03/26 00:36:54;;;;;;;22.50;17.43;;;;;;;9.17;47.77;97362.56;5057406;28;20535;-51
2022/03/26 00:39:20;;;;;;;25.43;19.20;;;;;;;9.10;47.96;97364.84;5057453;28;20222;-50
2022/03/26 00:41:47;;;;;;;24.17;19.67;;;;;;;9.06;48.00;97365.19;5057530;28;20215;-51
2022/03/26 00:44:13;;;;;;;20.60;18.07;;;;;;;9.01;48.77;97360.25;5057746;28;20237;-51
2022/03/26 00:46:40;;;;;;;24.17;20.07;;;;;;;8.99;48.93;97357.72;5057398;28;20218;-51
2022/03/26 00:49:06;;;;;;;26.30;19.23;;;;;;;8.99;49.23;97365.66;5058237;28;20217;-49
2022/03/26 00:51:36;;;;;;;22.80;18.73;;;;;;;8.95;49.81;97358.91;5057922;28;20547;-50
2022/03/26 00:54:04;;;;;;;25.60;19.47;;;;;;;8.89;49.39;97359.34;5050362;28;20659;-51
2022/03/26 00:56:31;;;;;;;26.43;20.07;;;;;;;8.94;48.81;97359.88;5052882;28;20218;-51
2022/03/26 00:58:57;;;;;;;24.60;19.40;;;;;;;8.97;48.48;97350.88;5058657;28;20219;-51
2022/03/26 01:01:24;;;;;;;24.33;20.03;;;;;;;8.94;48.12;97357.22;5059949;28;20208;-51
2022/03/26 01:03:50;;;;;;;26.47;19.47;;;;;;;8.89;48.39;97358.53;5064202;28;20235;-51
2022/03/26 01:06:18;;;;;;;24.00;19.43;;;;;;;8.83;49.37;97349.28;5065154;28;20203;-51
2022/03/26 01:08:46;;;;;;;25.90;18.73;;;;;;;8.74;49.21;97349.97;5064821;28;20203;-51
2022/03/26 01:11:13;;;;;;;24.77;19.37;;;;;;;8.74;49.46;97349.97;5063240;28;20207;-51
2022/03/26 01:13:39;;;;;;;25.83;19.90;;;;;;;8.67;50.30;97345.28;5063022;28;20217;-51
2022/03/26 01:16:06;;;;;;;26.33;19.00;;;;;;;8.68;49.34;97345.13;5045355;28;20211;-52
2022/03/26 01:18:33;;;;;;;27.97;20.43;;;;;;;8.57;48.98;97345.13;5061028;28;20210;-51
2022/03/26 01:21:00;;;;;;;27.73;20.03;;;;;;;8.50;49.62;97349.97;5061409;28;20273;-51
2022/03/26 01:23:26;;;;;;;24.73;19.97;;;;;;;8.52;49.99;97349.88;5058722;28;20209;-51
2022/03/26 01:25:54;;;;;;;23.90;19.87;;;;;;;8.46;52.06;97351.19;5056514;28;20242;-49
2022/03/26 01:28:21;;;;;;;28.00;20.33;;;;;;;8.34;52.38;97352.06;5057266;28;20207;-49
2022/03/26 01:30:47;;;;;;;25.77;20.37;;;;;;;8.09;52.68;97352.13;5056232;28;20600;-51
2022/03/26 01:33:14;;;;;;;25.20;19.83;;;;;;;8.18;52.89;97350.63;5055891;28;20265;-50
2022/03/26 01:35:40;;;;;;;28.67;19.73;;;;;;;8.24;52.23;97351.03;5056175;28;20203;-50
2022/03/26 01:38:07;;;;;;;25.87;19.70;;;;;;;8.22;53.07;97352.09;5056272;28;20219;-49
2022/03/26 01:40:33;;;;;;;26.60;21.13;;;;;;;8.26;52.54;97349.13;5056024;28;20231;-50
2022/03/26 01:43:02;;;;;;;26.33;20.23;;;;;;;8.21;52.31;97350.41;5056330;28;20218;-51
2022/03/26 01:45:29;;;;;;;28.63;21.47;;;;;;;8.22;52.34;97347.66;5056640;28;20230;-51
2022/03/26 01:47:56;;;;;;;25.50;20.37;;;;;;;8.15;52.68;97340.31;5055635;28;20208;-51
2022/03/26 01:50:23;;;;;;;26.90;20.30;;;;;;;8.13;53.12;97336.94;5056104;28;20356;-51
2022/03/26 01:52:49;;;;;;;28.67;21.40;;;;;;;8.10;52.12;97338.00;5056147;28;20214;-51
2022/03/26 01:55:16;;;;;;;28.90;21.07;;;;;;;8.09;52.71;97336.31;5056358;28;20207;-51
2022/03/26 01:57:42;;;;;;;30.37;21.90;;;;;;;7.93;52.94;97333.97;5056664;28;20207;-49
2022/03/26 02:00:11;;;;;;;27.30;21.23;;;;;;;8.07;52.41;97340.03;5056645;28;20221;-50
2022/03/26 02:02:43;;;;;;;25.53;20.80;;;;;;;7.99;53.08;97338.78;5056394;28;20242;-51
2022/03/26 02:05:10;;;;;;;27.67;20.97;;;;;;;7.96;52.93;97338.16;5050772;28;20216;-50
2022/03/26 02:07:38;;;;;;;25.17;20.77;;;;;;;7.93;52.88;97341.88;5047446;28;20202;-51
2022/03/26 02:10:05;;;;;;;28.60;21.53;;;;;;;8.02;53.32;97346.47;5055283;28;20631;-50
2022/03/26 02:12:32;;;;;;;26.53;20.33;;;;;;;8.06;52.60;97352.34;5056108;28;20210;-51
2022/03/26 02:14:59;;;;;;;25.60;21.03;;;;;;;8.08;52.55;97349.63;5055929;28;20204;-50
2022/03/26 02:17:27;;;;;;;23.93;20.30;;;;;;;8.09;52.31;97341.59;5050820;28;20628;-51
2022/03/26 02:19:56;;;;;;;26.33;20.43;;;;;;;8.11;52.21;97344.97;5067664;28;20207;-50
2022/03/26 02:22:23;;;;;;;27.57;22.13;;;;;;;8.11;52.61;97339.72;5062409;28;20218;-50
2022/03/26 02:24:50;;;;;;;26.00;21.37;;;;;;;8.10;53.25;97334.53;5053274;28;20643;-51
2022/03/26 02:27:16;;;;;;;28.47;20.27;;;;;;;8.11;52.96;97331.81;5057828;28;20215;-51
2022/03/26 02:29:44;;;;;;;27.73;21.07;;;;;;;8.14;52.62;97336.00;5068326;28;20211;-49
2022/03/26 02:32:10;;;;;;;28.23;21.50;;;;;;;8.06;52.50;97333.91;5055073;28;20234;-50
2022/03/26 02:34:38;;;;;;;26.23;20.40;;;;;;;8.09;51.50;97335.47;5058033;28;20226;-51
2022/03/26 02:37:06;;;;;;;30.43;22.13;;;;;;;7.92;51.91;97329.66;5068005;28;20235;-51
2022/03/26 02:39:33;;;;;;;27.53;21.63;;;;;;;7.80;53.41;97340.19;5059551;28;20516;-50
2022/03/26 02:42:00;;;;;;;27.97;21.93;;;;;;;7.79;53.50;97325.38;5045707;28;20224;-51
2022/03/26 02:44:26;;;;;;;30.03;22.40;;;;;;;7.81;53.25;97332.19;5050240;28;20224;-51
2022/03/26 02:46:54;;;;;;;26.80;21.20;;;;;;;7.64;54.21;97334.34;5051503;28;20206;-52
2022/03/26 02:49:20;;;;;;;28.00;22.50;;;;;;;7.65;54.89;97328.13;5056755;28;20207;-51
2022/03/26 02:51:50;;;;;;;28.07;21.37;;;;;;;7.61;54.82;97335.41;5063942;28;20207;-50
2022/03/26 02:54:20;;;;;;;28.07;21.67;;;;;;;7.65;54.09;97331.59;5054903;28;20230;-51
2022/03/26 02:56:47;;;;;;;26.07;20.33;;;;;;;7.62;55.62;97337.06;5051606;28;20223;-51
2022/03/26 02:59:14;;;;;;;24.30;20.50;;;;;;;7.65;54.60;97336.03;5055554;28;20211;-49
2022/03/26 03:01:40;;;;;;;26.13;20.67;;;;;;;7.71;54.17;97340.88;5055683;28;20214;-49
2022/03/26 03:04:07;;;;;;;25.33;20.87;;;;;;;7.75;54.61;97342.34;5057741;28;20207;-51
2022/03/26 03:06:34;;;;;;;27.00;20.03;;;;;;;7.77;53.67;97351.78;5061539;28;20235;-50
2022/03/26 03:09:01;;;;;;;26.60;21.27;;;;;;;7.83;55.07;97347.91;5062530;28;20218;-50
2022/03/26 03:11:29;;;;;;;28.63;20.93;;;;;;;7.77;55.42;97341.25;5045938;28;20213;-52
2022/03/26 03:13:56;;;;;;;29.83;21.40;;;;;;;7.54;54.53;97349.94;5057900;28;20230;-51
2022/03/26 03:16:22;;;;;;;27.77;20.23;;;;;;;7.59;55.57;97337.28;5054760;28;20247;-53
2022/03/26 03:18:49;;;;;;;29.57;22.23;;;;;;;7.57;54.86;97328.69;5063708;28;20210;-51
2022/03/26 03:21:15;;;;;;;26.70;21.43;;;;;;;7.50;55.87;97337.94;5066812;28;20214;-51
2022/03/26 03:23:42;;;;;;;29.93;21.67;;;;;;;7.53;55.31;97336.88;5065100;28;20203;-51
2022/03/26 03:26:09;;;;;;;27.70;22.00;;;;;;;7.56;54.14;97337.50;5054629;28;20253;-51
2022/03/26 03:28:37;;;;;;;24.93;20.90;;;;;;;7.58;55.13;97340.88;5065758;28;20208;-51
2022/03/26 03:31:04;;;;;;;27.53;21.23;;;;;;;7.63;54.78;97333.50;5056083;28;20607;-51
2022/03/26 03:33:30;;;;;;;30.70;22.50;;;;;;;7.49;55.11;97345.00;5075586;28;20197;-50
2022/03/26 03:35:59;;;;;;;27.50;21.33;;;;;;;7.48;55.96;97345.09;5079501;28;20200;-51
2022/03/26 03:38:25;;;;;;;27.27;21.43;;;;;;;7.47;54.27;97348.69;5080306;28;20195;-51
2022/03/26 03:40:52;;;;;;;30.20;21.23;;;;;;;7.53;54.48;97343.00;5059355;28;20214;-51
2022/03/26 03:43:18;;;;;;;26.43;20.57;;;;;;;7.59;54.78;97345.19;5058572;28;20203;-51
2022/03/26 03:45:46;;;;;;;26.80;20.67;;;;;;;7.61;54.65;97343.31;5058611;28;20226;-51
2022/03/26 03:48:13;;;;;;;28.63;21.40;;;;;;;7.66;55.09;97345.59;5058094;28;20242;-51
2022/03/26 03:50:39;;;;;;;28.57;21.77;;;;;;;7.64;56.24;97342.25;5044892;28;20216;-51
2022/03/26 03:53:06;;;;;;;29.23;21.90;;;;;;;7.54;55.26;97339.44;5057908;28;20207;-50
2022/03/26 03:55:33;;;;;;;26.93;21.17;;;;;;;7.48;56.43;97343.31;5057908;28;20207;-50
2022/03/26 03:57:59;;;;;;;26.03;20.70;;;;;;;7.49;56.16;97339.75;5057829;28;20207;-51
2022/03/26 04:00:26;;;;;;;27.30;21.43;;;;;;;7.47;56.24;97348.69;5058071;28;20207;-50
2022/03/26 04:02:54;;;;;;;26.70;21.73;;;;;;;7.42;56.46;97346.38;5057229;28;20624;-52
2022/03/26 04:05:21;;;;;;;28.50;21.83;;;;;;;7.40;57.16;97347.44;5045152;28;20226;-50
2022/03/26 04:07:47;;;;;;;27.17;21.43;;;;;;;7.36;56.65;97351.22;5058005;28;20210;-51
2022/03/26 04:10:14;;;;;;;27.30;21.77;;;;;;;7.29;57.26;97356.06;5057603;28;20208;-51
2022/03/26 04:12:43;;;;;;;28.10;21.57;;;;;;;7.19;57.72;97354.19;5053489;28;20219;-51
2022/03/26 04:15:10;;;;;;;25.27;20.50;;;;;;;7.17;57.41;97354.28;5057789;28;20211;-51
2022/03/26 04:17:37;;;;;;;27.73;21.40;;;;;;;7.15;58.18;97355.34;5057205;28;20231;-49
2022/03/26 04:20:08;;;;;;;26.43;20.73;;;;;;;7.10;58.18;97352.16;5057773;28;20222;-49
2022/03/26 04:22:34;;;;;;;31.40;21.60;;;;;;;7.08;58.67;97359.31;5057799;28;20199;-51
2022/03/26 04:25:01;;;;;;;30.10;21.03;;;;;;;7.06;58.11;97355.94;5057102;28;20239;-51
2022/03/26 04:27:27;;;;;;;26.07;19.70;;;;;;;7.04;58.28;97357.84;5057513;28;20202;-50
2022/03/26 04:29:54;;;;;;;27.33;22.07;;;;;;;6.95;58.02;97357.50;5048773;28;20575;-51
2022/03/26 04:32:21;;;;;;;28.23;21.30;;;;;;;6.99;58.24;97359.00;5052251;28;20199;-51
2022/03/26 04:34:47;;;;;;;26.57;21.17;;;;;;;7.03;58.36;97366.66;5048179;28;20264;-51
2022/03/26 04:37:15;;;;;;;27.77;21.27;;;;;;;7.08;56.67;97367.22;5053374;28;20807;-51
2022/03/26 04:39:42;;;;;;;26.27;21.33;;;;;;;7.11;57.17;97362.59;5057152;28;20199;-50
2022/03/26 04:42:09;;;;;;;25.57;20.53;;;;;;;7.14;57.22;97364.16;5053663;28;20238;-50
2022/03/26 04:44:36;;;;;;;30.37;21.47;;;;;;;7.18;57.43;97368.28;5057174;28;20243;-51
2022/03/26 04:47:02;;;;;;;26.67;20.67;;;;;;;7.22;57.15;97361.84;5056697;28;20219;-50
2022/03/26 04:49:28;;;;;;;27.13;20.77;;;;;;;7.12;56.67;97366.06;5057263;28;20666;-50
2022/03/26 04:51:55;;;;;;;26.03;19.70;;;;;;;7.16;56.74;97365.72;5057604;28;20238;-50
2022/03/26 04:54:23;;;;;;;31.43;21.37;;;;;;;7.17;56.61;97377.94;5057001;28;20207;-50
2022/03/26 04:56:50;;;;;;;28.80;21.50;;;;;;;7.07;58.08;97376.03;5057679;28;20207;-51
2022/03/26 04:59:16;;;;;;;28.30;21.03;;;;;;;7.02;58.45;97376.34;5057372;28;20226;-51
2022/03/26 05:01:44;;;;;;;26.73;21.30;;;;;;;6.95;58.11;97382.97;5056793;28;20237;-51
2022/03/26 05:04:10;;;;;;;27.10;20.53;;;;;;;6.94;58.49;97391.81;5058817;28;20635;-52
2022/03/26 05:06:37;;;;;;;26.97;21.53;;;;;;;6.95;58.13;97389.06;5055731;28;20250;-50
2022/03/26 05:09:03;;;;;;;30.07;22.13;;;;;;;6.87;59.58;97390.53;5054229;28;20207;-51
2022/03/26 05:11:31;;;;;;;28.43;21.33;;;;;;;6.84;59.62;97386.31;5058016;28;20226;-49
2022/03/26 05:13:58;;;;;;;29.23;21.37;;;;;;;6.76;59.83;97386.00;5054336;28;20226;-49
2022/03/26 05:16:25;;;;;;;26.43;21.57;;;;;;;6.83;59.22;97391.69;5056895;28;20203;-52
2022/03/26 05:18:51;;;;;;;29.20;22.20;;;;;;;6.75;60.41;97397.44;5056891;28;20207;-51
2022/03/26 05:21:18;;;;;;;27.60;20.97;;;;;;;6.81;59.24;97397.03;5056923;28;20211;-51
2022/03/26 05:23:44;;;;;;;27.83;21.80;;;;;;;6.62;60.29;97396.56;5056747;28;20293;-49
2022/03/26 05:26:11;;;;;;;29.60;21.60;;;;;;;6.63;60.48;97398.22;5056148;28;20274;-51
2022/03/26 05:28:39;;;;;;;32.03;22.00;;;;;;;6.67;60.83;97397.09;5051026;28;20227;-50
2022/03/26 05:31:07;;;;;;;33.63;22.03;;;;;;;6.63;61.06;97395.59;5056410;28;20207;-50
2022/03/26 05:33:33;;;;;;;27.97;21.63;;;;;;;6.62;59.69;97401.81;5056690;28;20598;-50
2022/03/26 05:35:59;;;;;;;27.87;21.80;;;;;;;6.67;60.28;97399.72;5056572;28;20207;-51
2022/03/26 05:38:26;;;;;;;27.23;20.70;;;;;;;6.66;59.86;97400.66;5056698;28;20535;-51
2022/03/26 05:40:52;;;;;;;30.40;21.07;;;;;;;6.71;60.68;97406.47;5055979;28;20214;-51
2022/03/26 05:43:19;;;;;;;27.23;22.00;;;;;;;6.79;60.10;97404.19;5056163;28;20210;-50
2022/03/26 05:45:50;;;;;;;27.50;21.93;;;;;;;6.89;58.54;97404.41;5055685;28;20230;-50
2022/03/26 05:48:19;;;;;;;28.17;21.67;;;;;;;6.96;58.61;97405.69;5052983;28;20225;-51
2022/03/26 05:50:46;;;;;;;27.57;20.13;;;;;;;7.04;59.34;97402.56;5055766;28;20202;-51
2022/03/26 05:53:12;;;;;;;27.67;21.80;;;;;;;7.05;59.80;97414.75;5073043;28;20218;-51
2022/03/26 05:55:39;;;;;;;27.73;21.57;;;;;;;7.06;58.75;97416.44;5077287;28;20198;-51
2022/03/26 05:58:05;;;;;;;26.97;21.40;;;;;;;7.18;58.69;97411.19;5055799;28;20222;-50
2022/03/26 06:00:32;;;;;;;27.00;21.27;;;;;;;7.18;60.27;97420.88;5056153;28;20207;-50
2022/03/26 06:02:59;;;;;;;26.10;20.53;;;;;;;7.49;59.80;97428.38;5056044;28;20210;-51
2022/03/26 06:05:26;;;;;;;25.10;20.97;;;;;;;8.18;57.66;97427.03;5056347;28;20234;-51
2022/03/26 06:07:52;;;;;;;28.40;21.90;;;;;;;9.00;54.77;97425.34;5056018;28;20198;-51
2022/03/26 06:10:19;;;;;;;29.77;22.43;;;;;;;9.38;53.40;97432.19;5055532;28;20239;-49
2022/03/26 06:12:45;;;;;;;32.50;21.53;;;;;;;9.80;52.02;97431.53;5055628;28;20222;-50
2022/03/26 06:15:12;;;;;;;26.60;21.80;;;;;;;10.24;51.60;97424.56;5055426;28;20247;-51
2022/03/26 06:17:39;;;;;;;28.07;22.40;;;;;;;10.63;50.41;97431.16;5055305;28;20253;-50
2022/03/26 06:20:07;;;;;;;25.03;21.40;;;;;;;10.10;52.47;97428.28;5055104;28;20219;-52
2022/03/26 06:22:33;;;;;;;24.30;21.53;;;;;;;10.06;51.85;97433.97;5055681;28;20515;-51
2022/03/26 06:25:00;;;;;;;25.23;21.73;;;;;;;10.11;51.92;97432.63;5056341;28;20296;-52
2022/03/26 06:27:26;;;;;;;28.03;22.33;;;;;;;10.31;51.36;97444.28;5056273;28;20234;-50
2022/03/26 06:29:53;;;;;;;26.07;22.20;;;;;;;11.04;46.15;97441.00;5066598;28;20211;-52
2022/03/26 06:32:19;;;;;;;27.97;22.87;;;;;;;11.46;44.13;97437.41;5052662;28;20206;-52
2022/03/26 06:34:47;;;;;;;30.47;22.43;;;;;;;11.72;43.06;97445.84;5054576;28;20230;-51
2022/03/26 06:37:15;;;;;;;27.30;22.20;;;;;;;12.26;42.34;97442.88;5055074;28;20211;-50
2022/03/26 06:39:41;;;;;;;27.60;22.57;;;;;;;12.98;43.01;97441.66;5055641;28;20217;-52
2022/03/26 06:42:09;;;;;;;25.03;22.33;;;;;;;13.25;40.80;97448.16;5055281;28;20211;-52
2022/03/26 06:44:36;;;;;;;27.53;22.53;;;;;;;13.35;40.01;97449.00;5055310;28;20230;-51
2022/03/26 06:47:02;;;;;;;25.27;21.23;;;;;;;13.66;43.08;97447.84;5055247;28;20239;-52
2022/03/26 06:49:31;;;;;;;26.50;22.60;;;;;;;14.30;41.57;97441.75;5055360;28;20217;-51
2022/03/26 06:51:58;;;;;;;25.77;22.53;;;;;;;14.29;39.55;97445.41;5054996;28;20609;-51
2022/03/26 06:54:26;;;;;;;27.87;23.63;;;;;;;14.37;39.31;97441.06;5055563;28;20215;-50
2022/03/26 06:56:55;;;;;;;26.47;23.10;;;;;;;14.77;37.60;97447.88;5055092;28;20588;-51
2022/03/26 06:59:22;;;;;;;27.17;22.73;;;;;;;15.43;36.19;97443.03;5054089;28;20233;-51
2022/03/26 07:01:49;;;;;;;27.77;23.00;;;;;;;15.10;34.95;97443.69;5052608;28;20226;-51
2022/03/26 07:04:15;;;;;;;27.47;23.33;;;;;;;14.89;35.61;97452.81;5055294;28;20210;-52
2022/03/26 07:06:42;;;;;;;27.67;23.60;;;;;;;15.01;34.92;97452.59;5055236;28;20237;-51
2022/03/26 07:09:08;;;;;;;29.07;22.83;;;;;;;14.91;34.85;97452.69;5055075;28;20203;-52
2022/03/26 07:11:36;;;;;;;27.70;22.63;;;;;;;14.50;35.66;97454.03;5054816;28;20203;-51
2022/03/26 07:14:03;;;;;;;29.40;24.00;;;;;;;14.42;37.83;97456.56;5054842;28;20214;-50
2022/03/26 07:16:29;;;;;;;29.43;22.83;;;;;;;14.19;38.03;97455.25;5050693;28;20204;-53
2022/03/26 07:18:56;;;;;;;27.17;23.00;;;;;;;13.61;38.32;97457.19;5055085;28;20206;-51
2022/03/26 07:21:23;;;;;;;29.67;23.50;;;;;;;13.45;38.86;97460.44;5054658;28;20539;-51
2022/03/26 07:23:49;;;;;;;26.60;22.47;;;;;;;13.18;40.33;97458.47;5055053;28;20221;-52
2022/03/26 07:26:16;;;;;;;31.37;23.80;;;;;;;12.91;40.44;97461.78;5054290;28;20612;-51
2022/03/26 07:28:43;;;;;;;29.40;23.37;;;;;;;12.83;40.33;97474.06;5057078;28;20539;-52
2022/03/26 07:31:10;;;;;;;31.80;24.23;;;;;;;12.44;40.18;97467.78;5060353;28;20636;-51
2022/03/26 07:33:36;;;;;;;30.27;23.90;;;;;;;12.34;41.55;97464.28;5066532;28;20207;-51
2022/03/26 07:36:03;;;;;;;30.77;24.53;;;;;;;12.10;41.95;97461.94;5055665;28;20210;-51
2022/03/26 07:38:29;;;;;;;28.67;24.13;;;;;;;12.01;41.59;97464.56;5063212;28;20543;-51
2022/03/26 07:40:57;;;;;;;30.30;24.03;;;;;;;12.06;42.68;97467.63;5071207;28;20206;-51
2022/03/26 07:43:23;;;;;;;29.50;24.10;;;;;;;11.93;42.31;97468.72;5067975;28;20241;-52
2022/03/26 07:45:51;;;;;;;28.43;23.97;;;;;;;11.98;42.31;97463.00;5056753;28;20585;-51
2022/03/26 07:48:17;;;;;;;30.47;24.10;;;;;;;12.22;42.24;97473.31;5054738;28;20207;-51
2022/03/26 07:50:44;;;;;;;34.47;24.80;;;;;;;12.10;42.38;97477.84;5041237;28;20210;-51
2022/03/26 07:53:12;;;;;;;31.03;24.57;;;;;;;12.02;42.86;97477.66;5054513;28;20207;-51
2022/03/26 07:55:38;;;;;;;29.33;23.70;;;;;;;12.11;42.80;97474.25;5054195;28;20303;-51
2022/03/26 07:58:05;;;;;;;28.70;24.33;;;;;;;12.24;42.61;97474.84;5054189;28;20557;-51
2022/03/26 08:00:32;;;;;;;30.37;24.83;;;;;;;12.20;43.45;97480.53;5041475;28;20230;-51
2022/03/26 08:02:59;;;;;;;31.10;24.70;;;;;;;12.19;42.34;97476.22;5054396;28;20221;-51
2022/03/26 08:05:27;;;;;;;28.80;23.40;;;;;;;12.20;42.54;97475.25;5054870;28;20242;-50
2022/03/26 08:07:53;;;;;;;30.87;24.10;;;;;;;12.28;42.68;97475.44;5074144;28;20219;-51
2022/03/26 08:10:19;;;;;;;32.77;23.57;;;;;;;12.25;43.11;97475.69;5077624;28;20190;-51
2022/03/26 08:12:46;;;;;;;35.20;24.40;;;;;;;12.34;42.27;97477.53;5077217;28;20175;-55
2022/03/26 08:15:12;;;;;;;31.67;24.63;;;;;;;12.44;41.92;97479.25;5048152;28;20207;-50
2022/03/26 08:17:39;;;;;;;32.63;23.17;;;;;;;12.52;42.13;97475.94;5059616;28;20215;-51
2022/03/26 08:20:08;;;;;;;28.27;23.70;;;;;;;12.51;41.38;97474.25;5058185;28;20199;-50
2022/03/26 08:22:35;;;;;;;30.73;23.80;;;;;;;12.61;41.32;97469.81;5060340;28;20233;-53
2022/03/26 08:25:01;;;;;;;29.67;23.73;;;;;;;12.62;41.21;97473.31;5058163;28;20235;-52
2022/03/26 08:27:28;;;;;;;28.53;22.67;;;;;;;12.67;41.65;97474.59;5059136;28;20661;-51
2022/03/26 08:29:54;;;;;;;31.90;22.57;;;;;;;12.72;40.53;97472.34;5069269;28;20215;-51
2022/03/26 08:32:21;;;;;;;29.47;22.40;;;;;;;12.81;41.74;97471.56;5057826;28;20631;-51
2022/03/26 08:34:48;;;;;;;30.30;22.57;;;;;;;12.69;41.64;97472.63;5057857;28;20647;-51
2022/03/26 08:37:15;;;;;;;26.97;22.73;;;;;;;12.81;41.54;97478.66;5058246;28;20203;-51
2022/03/26 08:39:42;;;;;;;29.57;23.07;;;;;;;12.76;40.40;97475.56;5057878;28;20214;-50
2022/03/26 08:42:09;;;;;;;26.37;22.60;;;;;;;12.84;40.76;97473.09;5047281;28;20222;-52
2022/03/26 08:44:35;;;;;;;30.23;23.53;;;;;;;13.02;41.14;97473.25;5058379;28;20221;-51
2022/03/26 08:47:05;;;;;;;28.17;23.07;;;;;;;13.17;40.00;97479.88;5058992;28;20231;-52
2022/03/26 08:49:32;;;;;;;29.87;22.43;;;;;;;13.37;40.80;97470.94;5059131;28;20249;-50
2022/03/26 08:51:59;;;;;;;29.67;23.20;;;;;;;13.62;39.92;97475.66;5051347;28;20211;-52
2022/03/26 08:54:27;;;;;;;33.90;22.60;;;;;;;13.89;40.69;97470.44;5065522;28;20223;-53
2022/03/26 08:56:54;;;;;;;30.63;22.47;;;;;;;14.01;38.99;97473.78;5060136;28;20199;-51
2022/03/26 08:59:22;;;;;;;31.47;22.73;;;;;;;14.40;39.83;97474.53;5057614;28;20218;-51
2022/03/26 09:01:49;;;;;;;31.33;23.47;;;;;;;14.71;38.85;97478.56;5058585;28;20211;-53
2022/03/26 09:04:16;;;;;;;27.30;23.40;;;;;;;14.80;37.76;97475.03;5051948;28;20423;-52
2022/03/26 09:06:43;;;;;;;25.97;22.40;;;;;;;14.84;37.50;97476.38;5059772;28;20663;-51
2022/03/26 09:09:09;;;;;;;29.23;24.20;;;;;;;15.13;36.86;97473.53;5060330;28;20207;-51
2022/03/26 09:11:37;;;;;;;27.97;23.40;;;;;;;15.55;36.64;97472.97;5046816;28;20302;-52
2022/03/26 09:14:04;;;;;;;26.87;22.93;;;;;;;15.72;36.20;97466.78;5057788;28;20214;-52
2022/03/26 09:16:30;;;;;;;29.93;23.23;;;;;;;15.92;35.49;97470.94;5057238;28;20217;-50
2022/03/26 09:18:57;;;;;;;27.40;23.33;;;;;;;16.18;35.12;97466.44;5057269;28;20632;-52
2022/03/26 09:21:24;;;;;;;29.57;23.83;;;;;;;15.92;34.58;97463.78;5057862;28;20230;-52
2022/03/26 09:23:50;;;;;;;25.40;20.97;;;;;;;16.49;37.39;97458.75;5057537;28;20218;-53
2022/03/26 09:26:19;;;;;;;25.40;22.60;;;;;;;16.76;34.47;97466.56;5056744;28;20250;-52
2022/03/26 09:28:49;;;;;;;26.60;22.97;;;;;;;17.06;34.76;97459.00;5057012;28;20203;-52
2022/03/26 09:31:16;;;;;;;25.97;22.87;;;;;;;16.82;33.86;97463.28;5056848;28;20203;-52
2022/03/26 09:33:50;;;;;;;27.83;23.27;;;;;;;17.21;35.15;97468.06;5057836;28;20268;-51
2022/03/26 09:36:16;;;;;;;26.67;23.33;;;;;;;17.43;34.11;97462.06;5057958;28;20207;-53
2022/03/26 09:38:44;;;;;;;27.02;24.20;;;;;;;17.69;33.33;97459.25;5057207;28;20218;-52
2022/03/26 09:41:13;;;;;;;28.88;23.20;;;;;;;18.04;33.43;97455.38;5058108;28;20207;-51
2022/03/26 09:43:40;;;;;;;27.15;24.08;;;;;;;18.20;32.43;97453.53;5056890;28;20218;-50
2022/03/26 09:46:08;;;;;;;28.08;23.08;;;;;;;18.04;32.46;97450.03;5056106;28;20666;-55
2022/03/26 09:48:34;;;;;;;31.02;23.63;;;;;;;18.49;32.77;97452.13;5056025;28;20202;-52
2022/03/26 09:51:03;;;;;;;28.15;24.90;;;;;;;18.55;32.05;97443.41;5056075;28;20526;-55
2022/03/26 09:53:29;;;;;;;26.85;24.00;;;;;;;18.83;32.21;97450.81;5057299;28;20257;-52
2022/03/26 09:55:56;;;;;;;27.88;24.02;;;;;;;18.66;33.08;97454.59;5056964;28;20207;-53
2022/03/26 09:58:22;;;;;;;28.40;24.00;;;;;;;18.76;32.41;97443.66;5057179;28;20214;-54
2022/03/26 10:00:49;;;;;;;28.23;23.92;;;;;;;18.94;31.91;97444.25;5057773;28;20218;-52
2022/03/26 10:03:18;;;;;;;30.38;23.98;;;;;;;19.16;32.30;97445.28;5057542;28;20636;-51
2022/03/26 10:05:46;;;;;;;28.40;22.67;;;;;;;19.54;31.47;97443.53;5057168;28;20646;-52
2022/03/26 10:08:22;;;;;;;27.17;22.83;;;;;;;19.30;30.74;97447.22;5057008;28;20231;-52
2022/03/26 10:10:49;;;;;;;28.52;23.98;;;;;;;19.62;30.83;97440.81;5062734;28;20206;-52
2022/03/26 10:13:34;;;;;;;27.77;24.88;;;;;;;19.68;30.00;97440.91;5066473;28;20211;-52
2022/03/26 10:16:01;;;;;;;25.70;23.00;;;;;;;19.75;30.08;97439.19;5067721;28;20214;-52
2022/03/26 10:18:35;;;;;;;27.55;24.17;;;;;;;19.71;31.09;97439.72;5055011;28;20199;-54
2022/03/26 10:21:02;;;;;;;27.88;24.67;;;;;;;19.70;30.87;97438.88;5052162;28;20284;-52
2022/03/26 10:23:29;;;;;;;27.77;23.83;;;;;;;19.84;30.74;97434.56;5067803;28;20203;-54
2022/03/26 10:26:10;;;;;;;28.88;23.15;;;;;;;19.90;29.82;97438.38;5078578;28;20305;-52
2022/03/26 10:28:37;;;;;;;26.17;23.42;;;;;;;20.12;30.65;97434.81;5089672;28;20204;-53
2022/03/26 10:34:08;;;;;;;28.23;23.60;;;;;;;20.22;29.99;97438.91;5055790;28;20272;-53
2022/03/26 10:36:44;;;;;;;27.77;23.50;;;;;;;20.16;29.18;97438.78;5055860;28;20202;-52
2022/03/26 10:39:16;;;;;;;31.55;24.48;;;;;;;20.29;29.31;97436.34;5055645;28;20213;-55
2022/03/26 10:41:42;;;;;;;26.05;23.25;;;;;;;20.31;28.79;97432.44;5055352;28;20631;-52
2022/03/26 10:44:11;;;;;;;27.15;23.25;;;;;;;20.29;29.50;97430.97;5054768;28;20573;-52
2022/03/26 10:46:45;;;;;;;28.95;24.17;;;;;;;20.10;29.29;97436.84;5055424;28;20222;-53
2022/03/26 10:49:14;;;;;;;27.35;23.42;;;;;;;20.28;29.37;97430.13;5055380;28;20574;-51
2022/03/26 10:51:42;;;;;;;28.35;25.30;;;;;;;20.11;29.21;97431.28;5055353;28;20230;-52
2022/03/26 10:54:10;;;;;;;26.13;23.02;;;;;;;20.25;30.27;97424.25;5055010;28;20218;-52
2022/03/26 10:56:38;;;;;;;26.70;23.38;;;;;;;20.36;30.13;97431.91;5055341;28;20222;-55
2022/03/26 10:59:04;;;;;;;29.20;22.95;;;;;;;20.34;29.11;97429.38;5054578;28;20226;-53
2022/03/26 11:01:31;;;;;;;27.00;23.15;;;;;;;20.53;29.59;97430.69;5055080;28;20666;-55
2022/03/26 11:03:58;;;;;;;28.40;24.55;;;;;;;20.29;28.78;97425.59;5055762;28;20214;-55
2022/03/26 11:06:27;;;;;;;30.23;23.85;;;;;;;19.94;30.14;97423.56;5055974;28;20207;-54
2022/03/26 11:08:59;;;;;;;26.88;24.08;;;;;;;20.45;30.91;97414.66;5054927;28;20651;-53
2022/03/26 11:11:27;;;;;;;27.70;24.77;;;;;;;20.47;30.57;97414.47;5055893;28;20479;-54
2022/03/26 11:13:55;;;;;;;26.60;23.65;;;;;;;20.91;29.92;97422.47;5055696;28;20665;-54
2022/03/26 11:16:32;;;;;;;26.52;23.67;;;;;;;20.75;28.77;97419.00;5054762;28;20215;-54
2022/03/26 11:19:04;;;;;;;26.60;23.63;;;;;;;21.13;28.66;97421.53;5047373;28;20199;-54
2022/03/26 11:21:56;;;;;;;26.33;23.08;;;;;;;21.14;28.75;97409.75;5054594;28;20298;-55
2022/03/26 11:24:32;;;;;;;27.60;23.70;;;;;;;20.84;28.40;97419.69;5055038;28;20207;-55